Time;durP1;ratioP1;P1;durP2;ratioP2;P2;SDS_P1;SDS_P2;PMS_P1;PMS_P2;Temp;Humidity;BMP_temperature;BMP_pressure;BME280_temperature;BME280_humidity;BME280_pressure;Samples;Min_cycle;Max_cycle;Signal;HPM_P1;HPM_P2
2021/05/05 00:00:59;;;;;;;2.58;1.92;;;;;;;14.02;52.76;94240.84;5028549;28;20053;-73
2021/05/05 00:03:25;;;;;;;2.20;1.75;;;;;;;13.95;53.05;94234.53;5028246;28;20036;-72
2021/05/05 00:05:52;;;;;;;2.58;2.38;;;;;;;13.98;52.53;94231.94;5028509;28;20096;-73
2021/05/05 00:08:18;;;;;;;5.80;2.08;;;;;;;13.75;53.14;94242.47;5031768;28;20021;-73
2021/05/05 00:10:43;;;;;;;1.88;1.77;;;;;;;13.60;53.81;94234.47;5032562;28;20420;-73
2021/05/05 00:13:09;;;;;;;1.88;1.77;;;;;;;13.72;53.02;94215.69;5032302;28;20050;-73
2021/05/05 00:15:34;;;;;;;2.03;1.83;;;;;;;13.89;52.86;94209.97;5032553;28;20025;-74
2021/05/05 00:17:59;;;;;;;6.05;2.05;;;;;;;13.69;52.42;94192.31;5032192;28;20031;-73
2021/05/05 00:20:25;;;;;;;2.40;2.00;;;;;;;13.74;52.70;94229.47;5033178;28;20026;-72
2021/05/05 00:22:51;;;;;;;1.70;1.60;;;;;;;13.90;52.52;94222.19;5031765;28;20491;-72
2021/05/05 00:25:19;;;;;;;1.95;1.75;;;;;;;13.61;52.31;94161.19;5031869;28;20037;-73
2021/05/05 00:27:44;;;;;;;2.55;1.88;;;;;;;13.80;52.23;94206.69;5030659;28;20037;-75
2021/05/05 00:30:12;;;;;;;2.00;1.90;;;;;;;13.69;52.72;94206.44;5032036;28;20407;-75
2021/05/05 00:32:38;;;;;;;2.80;1.95;;;;;;;13.78;52.62;94216.97;5033933;28;20053;-74
2021/05/05 00:35:06;;;;;;;2.92;2.00;;;;;;;13.36;53.58;94217.47;5031898;28;20056;-74
2021/05/05 00:37:31;;;;;;;2.25;2.00;;;;;;;13.07;54.84;94217.84;5031610;28;20121;-73
2021/05/05 00:39:57;;;;;;;2.75;1.90;;;;;;;12.94;54.98;94201.09;5030701;28;20460;-73
2021/05/05 00:42:23;;;;;;;2.20;1.92;;;;;;;13.04;54.38;94194.47;5031816;28;20061;-75
2021/05/05 00:44:49;;;;;;;2.33;2.13;;;;;;;13.24;53.87;94201.50;5031770;28;20029;-74
2021/05/05 00:47:18;;;;;;;4.60;2.17;;;;;;;12.60;55.27;94194.47;5033620;28;20048;-74
2021/05/05 00:49:44;;;;;;;2.75;1.88;;;;;;;12.98;55.09;94194.72;5030305;28;20038;-74
2021/05/05 00:52:09;;;;;;;2.03;1.92;;;;;;;12.99;54.67;94182.94;5030344;28;20119;-75
2021/05/05 00:54:35;;;;;;;2.33;2.13;;;;;;;12.69;55.34;94152.38;5031747;28;20033;-76
2021/05/05 00:57:01;;;;;;;2.17;2.03;;;;;;;12.90;55.11;94184.22;5031448;28;21134;-74
2021/05/05 00:59:27;;;;;;;2.65;1.70;;;;;;;12.88;54.98;94170.44;5033639;28;20378;-73
2021/05/05 01:01:52;;;;;;;2.28;1.75;;;;;;;12.94;54.86;94177.06;5029944;28;20124;-74
2021/05/05 01:04:20;;;;;;;2.20;2.00;;;;;;;12.82;55.47;94169.13;5030100;28;20128;-73
2021/05/05 01:06:46;;;;;;;3.05;2.08;;;;;;;12.67;55.57;94163.41;5031360;28;20061;-73
2021/05/05 01:09:12;;;;;;;2.25;1.92;;;;;;;12.62;55.88;94165.53;5031413;28;20038;-73
2021/05/05 01:11:37;;;;;;;2.30;2.10;;;;;;;12.52;56.62;94174.81;5033147;28;20468;-74
2021/05/05 01:14:03;;;;;;;2.38;2.03;;;;;;;12.59;56.31;94158.22;5031279;28;20084;-73
2021/05/05 01:16:28;;;;;;;3.92;2.40;;;;;;;12.74;56.09;94181.50;5029861;28;20055;-73
2021/05/05 01:18:53;;;;;;;2.60;2.10;;;;;;;12.89;55.58;94170.06;5030388;28;20137;-74
2021/05/05 01:21:19;;;;;;;3.83;2.00;;;;;;;12.50;56.43;94179.72;5028956;28;20421;-74
2021/05/05 01:23:45;;;;;;;2.60;2.17;;;;;;;12.49;56.50;94154.16;5030859;28;20029;-74
2021/05/05 01:26:11;;;;;;;3.35;2.80;;;;;;;12.50;56.96;94182.38;5033074;28;20025;-73
2021/05/05 01:28:40;;;;;;;1.98;1.88;;;;;;;12.14;57.90;94170.69;5030868;28;20041;-73
2021/05/05 01:31:11;;;;;;;6.03;2.20;;;;;;;12.42;57.07;94169.94;5031063;28;20034;-74
2021/05/05 01:33:38;;;;;;;2.70;2.03;;;;;;;12.30;57.56;94175.34;5031076;28;20030;-75
2021/05/05 01:36:05;;;;;;;2.55;2.30;;;;;;;12.59;56.77;94152.88;5031019;28;20041;-74
2021/05/05 01:38:30;;;;;;;2.70;1.83;;;;;;;12.92;56.03;94177.41;5032613;28;20029;-75
2021/05/05 01:40:55;;;;;;;3.08;2.13;;;;;;;12.56;56.90;94177.59;5030988;28;20050;-73
2021/05/05 01:43:21;;;;;;;2.83;2.30;;;;;;;12.60;56.34;94146.44;5030572;28;20046;-73
2021/05/05 01:45:46;;;;;;;2.60;2.40;;;;;;;12.46;57.52;94163.59;5030789;28;20578;-76
2021/05/05 01:48:12;;;;;;;2.33;2.13;;;;;;;12.25;58.48;94165.69;5030513;28;20449;-73
2021/05/05 01:50:38;;;;;;;2.17;2.08;;;;;;;12.35;57.65;94172.44;5032658;28;20614;-73
2021/05/05 01:53:04;;;;;;;2.55;2.30;;;;;;;11.81;60.47;94160.16;5030494;28;20037;-74
2021/05/05 01:55:30;;;;;;;3.13;2.17;;;;;;;12.38;58.83;94175.19;5030478;28;20498;-73
2021/05/05 01:57:56;;;;;;;2.92;2.17;;;;;;;12.51;58.74;94164.47;5030373;28;20049;-73
2021/05/05 02:00:24;;;;;;;2.55;2.35;;;;;;;12.27;59.95;94165.34;5030501;28;20041;-73
2021/05/05 02:02:50;;;;;;;3.00;2.72;;;;;;;11.76;62.74;94157.72;5030293;28;20029;-76
2021/05/05 02:05:15;;;;;;;3.92;3.17;;;;;;;11.89;62.35;94169.19;5032052;28;20384;-73
2021/05/05 02:07:41;;;;;;;3.20;2.78;;;;;;;11.80;63.44;94157.84;5030310;28;20121;-73
2021/05/05 02:10:09;;;;;;;3.67;2.92;;;;;;;11.66;65.02;94160.84;5030412;28;20076;-76
2021/05/05 02:12:35;;;;;;;3.42;3.13;;;;;;;11.51;65.22;94164.19;5030070;28;20041;-72
2021/05/05 02:15:01;;;;;;;3.95;3.65;;;;;;;11.65;64.69;94167.28;5030162;28;20060;-74
2021/05/05 02:17:26;;;;;;;6.25;3.75;;;;;;;11.80;64.62;94144.53;5031810;28;20048;-73
2021/05/05 02:19:52;;;;;;;4.65;3.05;;;;;;;11.76;64.25;94155.06;5030061;28;20418;-75
2021/05/05 02:22:17;;;;;;;4.20;3.35;;;;;;;11.99;63.25;94146.63;5029854;28;20667;-73
2021/05/05 02:24:43;;;;;;;3.58;3.28;;;;;;;11.69;65.37;94142.31;5029899;28;20037;-72
2021/05/05 02:27:09;;;;;;;4.93;3.65;;;;;;;11.89;63.95;94139.88;5029794;28;20180;-73
2021/05/05 02:29:34;;;;;;;3.45;3.15;;;;;;;11.37;65.70;94130.69;5031895;28;20506;-72
2021/05/05 02:32:03;;;;;;;4.00;3.65;;;;;;;12.07;63.48;94135.06;5029329;28;20088;-73
2021/05/05 02:34:29;;;;;;;3.30;3.10;;;;;;;11.80;64.24;94126.66;5029741;28;20415;-73
2021/05/05 02:36:54;;;;;;;3.58;3.28;;;;;;;12.05;64.46;94131.97;5029534;28;20030;-72
2021/05/05 02:39:21;;;;;;;3.80;3.50;;;;;;;11.85;64.65;94123.00;5029565;28;20499;-75
2021/05/05 02:41:47;;;;;;;3.65;3.30;;;;;;;12.13;62.85;94115.84;5028433;28;20022;-74
2021/05/05 02:44:15;;;;;;;3.35;3.05;;;;;;;12.36;62.70;94121.41;5031594;28;20107;-73
2021/05/05 02:46:43;;;;;;;3.75;3.45;;;;;;;12.24;63.30;94129.47;5029685;28;20622;-74
2021/05/05 02:49:08;;;;;;;4.00;3.60;;;;;;;11.79;64.07;94114.44;5028265;28;20148;-74
2021/05/05 02:51:34;;;;;;;3.38;3.08;;;;;;;12.02;63.83;94098.75;5029272;28;20136;-74
2021/05/05 02:54:00;;;;;;;3.55;3.25;;;;;;;11.95;64.19;94111.88;5029574;28;20030;-74
2021/05/05 02:56:26;;;;;;;4.20;3.35;;;;;;;12.45;62.81;94103.38;5030178;28;20395;-73
2021/05/05 02:58:51;;;;;;;3.40;3.08;;;;;;;12.78;61.79;94115.66;5029098;28;20037;-74
2021/05/05 03:01:16;;;;;;;4.68;3.00;;;;;;;12.75;61.56;94119.03;5028258;28;20048;-72
2021/05/05 03:03:42;;;;;;;3.53;3.33;;;;;;;12.90;61.60;94112.16;5028710;28;20033;-73
2021/05/05 03:06:07;;;;;;;3.67;3.38;;;;;;;13.10;61.03;94102.34;5029589;28;20514;-73
2021/05/05 03:08:33;;;;;;;4.97;3.95;;;;;;;13.13;61.65;94073.06;5031152;28;20025;-73
2021/05/05 03:11:00;;;;;;;3.90;3.50;;;;;;;13.22;61.16;94076.34;5029355;28;20048;-72
2021/05/05 03:13:25;;;;;;;3.92;3.55;;;;;;;13.15;61.34;94078.81;5029040;28;20088;-73
2021/05/05 03:15:51;;;;;;;4.32;3.40;;;;;;;13.20;61.11;94086.56;5029408;28;20029;-74
2021/05/05 03:18:16;;;;;;;3.75;3.40;;;;;;;13.08;61.82;94045.84;5029072;28;20033;-73
2021/05/05 03:20:42;;;;;;;3.88;3.60;;;;;;;13.29;62.09;94086.44;5030969;28;20071;-73
2021/05/05 03:23:07;;;;;;;4.13;3.78;;;;;;;13.28;62.78;94074.19;5029342;28;20038;-72
2021/05/05 03:25:32;;;;;;;4.72;4.32;;;;;;;13.26;62.91;94065.78;5028992;28;20450;-72
2021/05/05 03:27:58;;;;;;;5.65;4.32;;;;;;;13.24;63.03;94070.66;5028808;28;20076;-73
2021/05/05 03:30:23;;;;;;;4.13;3.70;;;;;;;13.12;62.99;94089.44;5029085;28;20033;-73
2021/05/05 03:32:49;;;;;;;4.65;4.30;;;;;;;13.12;63.71;94086.75;5028705;28;20037;-73
2021/05/05 03:35:14;;;;;;;4.40;4.10;;;;;;;13.17;63.98;94079.25;5029523;28;20536;-72
2021/05/05 03:37:40;;;;;;;3.92;3.72;;;;;;;13.07;63.94;94065.66;5028718;28;20098;-73
2021/05/05 03:40:08;;;;;;;4.55;4.25;;;;;;;13.15;64.09;94073.47;5028786;28;20063;-73
2021/05/05 03:42:33;;;;;;;4.47;4.07;;;;;;;13.13;63.88;94062.38;5026569;28;20480;-75
2021/05/05 03:45:00;;;;;;;4.05;3.75;;;;;;;13.21;64.23;94072.16;5028716;28;20090;-75
2021/05/05 03:47:25;;;;;;;4.47;4.13;;;;;;;13.13;64.11;94057.03;5030311;28;20068;-75
2021/05/05 03:49:51;;;;;;;4.13;3.83;;;;;;;13.15;63.35;94068.13;5028577;28;20069;-73
2021/05/05 03:52:16;;;;;;;4.22;3.83;;;;;;;13.28;63.52;94068.84;5028554;28;20484;-74
2021/05/05 03:54:42;;;;;;;4.35;3.97;;;;;;;12.90;62.62;94072.91;5028754;28;20042;-75
2021/05/05 03:57:07;;;;;;;4.47;4.15;;;;;;;12.06;66.62;94096.97;5028410;28;20190;-73
2021/05/05 03:59:33;;;;;;;5.95;3.70;;;;;;;12.43;66.18;94083.50;5030601;28;20037;-73
2021/05/05 04:01:58;;;;;;;4.13;3.55;;;;;;;11.29;70.25;94090.84;5028437;28;20029;-73
2021/05/05 04:04:24;;;;;;;7.78;3.80;;;;;;;11.45;69.70;94084.50;5033130;23;20427;-73
2021/05/05 04:06:49;;;;;;;4.38;3.70;;;;;;;11.08;72.48;94077.66;5027415;28;20652;-73
2021/05/05 04:09:14;;;;;;;5.05;3.95;;;;;;;11.31;71.65;94093.94;5044911;28;20053;-74
2021/05/05 04:11:40;;;;;;;4.40;4.00;;;;;;;10.88;74.11;94085.41;5030846;28;20494;-74
2021/05/05 04:14:06;;;;;;;4.93;4.45;;;;;;;11.32;72.52;94090.97;5028654;28;20057;-73
2021/05/05 04:16:32;;;;;;;5.57;4.72;;;;;;;10.92;74.59;94088.97;5028522;28;20038;-74
2021/05/05 04:18:57;;;;;;;4.78;4.30;;;;;;;11.03;75.40;94083.97;5028411;28;20091;-74
2021/05/05 04:21:23;;;;;;;8.50;5.78;;;;;;;10.72;77.65;94100.44;5028441;28;20511;-78
2021/05/05 04:23:49;;;;;;;8.63;6.57;;;;;;;10.70;79.63;94110.66;5028810;28;20026;-78
2021/05/05 04:26:15;;;;;;;9.48;8.68;;;;;;;10.02;83.61;94100.28;5029485;28;20068;-75
2021/05/05 04:28:40;;;;;;;10.32;9.32;;;;;;;9.79;85.60;94120.31;5028825;28;20039;-75
2021/05/05 04:31:07;;;;;;;10.98;9.98;;;;;;;9.49;88.11;94119.56;5028984;28;20036;-74
2021/05/05 04:33:32;;;;;;;12.02;10.55;;;;;;;9.32;88.69;94109.84;5028950;28;20042;-75
2021/05/05 04:35:57;;;;;;;9.30;8.57;;;;;;;9.52;88.58;94146.25;5029021;28;20028;-75
2021/05/05 04:38:23;;;;;;;4.35;3.95;;;;;;;8.02;91.66;94148.00;5030983;28;20048;-76
2021/05/05 04:40:49;;;;;;;7.28;4.38;;;;;;;7.27;94.87;94168.44;5027921;28;20025;-73
2021/05/05 04:43:14;;;;;;;6.78;2.90;;;;;;;6.77;97.34;94166.03;5028295;28;20386;-74
2021/05/05 04:45:40;;;;;;;7.32;6.50;;;;;;;6.70;98.61;94149.81;5028197;28;20569;-75
2021/05/05 04:48:06;;;;;;;11.57;7.00;;;;;;;6.65;100.00;94194.88;5027999;28;20041;-73
2021/05/05 04:50:31;;;;;;;22.20;8.65;;;;;;;6.74;100.00;94192.28;5029984;28;20029;-71
2021/05/05 04:52:56;;;;;;;12.15;5.03;;;;;;;6.45;100.00;94203.31;5028244;28;20059;-72
2021/05/05 04:55:22;;;;;;;13.20;6.53;;;;;;;6.47;100.00;94201.91;5030084;28;20120;-71
2021/05/05 04:57:47;;;;;;;16.02;7.45;;;;;;;6.46;100.00;94189.00;5047087;28;20384;-71
2021/05/05 05:00:13;;;;;;;11.30;6.53;;;;;;;6.55;100.00;94213.59;5030670;28;20109;-72
2021/05/05 05:02:39;;;;;;;30.33;4.85;;;;;;;6.08;100.00;94223.66;5033191;28;20067;-72
2021/05/05 05:05:05;;;;;;;21.15;4.53;;;;;;;5.84;100.00;94252.91;5031659;28;20037;-73
2021/05/05 05:07:32;;;;;;;9.60;4.28;;;;;;;5.89;100.00;94238.84;5031333;28;20045;-73
2021/05/05 05:09:58;;;;;;;11.13;5.03;;;;;;;5.78;100.00;94259.34;5032272;28;20036;-76
2021/05/05 05:12:24;;;;;;;21.95;6.57;;;;;;;5.60;100.00;94268.94;5047771;28;20033;-81
2021/05/05 05:14:49;;;;;;;22.58;7.50;;;;;;;5.82;100.00;94278.81;5030746;28;20025;-81
2021/05/05 05:17:15;;;;;;;29.40;10.45;;;;;;;6.13;100.00;94263.16;5035179;28;20100;-84
2021/05/05 05:19:40;;;;;;;24.45;9.35;;;;;;;6.46;100.00;94290.19;5049779;28;20041;-89
2021/05/05 05:22:06;;;;;;;12.48;5.30;;;;;;;6.10;100.00;94295.44;5034278;28;20048;-87
2021/05/05 05:24:31;;;;;;;10.23;6.20;;;;;;;6.01;100.00;94275.31;5033672;28;20109;-87
2021/05/05 05:26:57;;;;;;;21.48;8.30;;;;;;;6.04;100.00;94280.78;5033640;28;20044;-90
2021/05/05 05:29:22;;;;;;;13.23;6.57;;;;;;;6.20;100.00;94292.59;5051618;28;20025;-88
2021/05/05 05:31:48;;;;;;;16.02;6.10;;;;;;;6.11;100.00;94267.97;5034127;28;20047;-89
2021/05/05 05:34:14;;;;;;;10.68;5.43;;;;;;;5.79;100.00;94268.09;5034781;28;20063;-88
2021/05/05 05:36:41;;;;;;;7.32;3.38;;;;;;;5.66;100.00;94253.81;5032747;28;20125;-75
2021/05/05 05:39:07;;;;;;;13.45;6.95;;;;;;;5.90;100.00;94245.69;5032811;28;20099;-78
2021/05/05 05:41:33;;;;;;;17.90;7.03;;;;;;;5.99;100.00;94251.84;5049293;28;20021;-73
2021/05/05 05:43:58;;;;;;;5.13;3.13;;;;;;;5.55;100.00;94239.25;5031833;28;20034;-80
2021/05/05 05:46:24;;;;;;;4.38;3.35;;;;;;;5.25;100.00;94274.88;5048434;28;20123;-73
2021/05/05 05:48:49;;;;;;;2.92;2.22;;;;;;;5.12;100.00;94271.94;5031888;28;20049;-78
2021/05/05 05:51:15;;;;;;;12.63;4.47;;;;;;;5.35;100.00;94272.06;5031549;28;20117;-78
2021/05/05 05:53:40;;;;;;;5.38;3.63;;;;;;;5.34;100.00;94262.59;5033374;28;20112;-79
2021/05/05 05:56:06;;;;;;;6.90;4.40;;;;;;;5.56;100.00;94275.09;5047237;28;20037;-79
2021/05/05 05:58:31;;;;;;;9.25;4.03;;;;;;;5.35;100.00;94288.66;5047371;28;20041;-82
2021/05/05 06:00:57;;;;;;;5.85;4.03;;;;;;;5.67;100.00;94305.50;5033042;28;20030;-83
2021/05/05 06:03:22;;;;;;;8.25;4.32;;;;;;;5.74;100.00;94311.97;5031537;28;20549;-84
2021/05/05 06:05:56;;;;;;;18.05;5.20;;;;;;;5.47;100.00;94330.38;5023695;28;20471;-81
2021/05/05 06:08:22;;;;;;;7.55;3.40;;;;;;;5.62;100.00;94321.41;5026866;28;20076;-80
2021/05/05 06:10:48;;;;;;;7.60;3.95;;;;;;;5.72;100.00;94340.47;5043129;28;20065;-80
2021/05/05 06:13:14;;;;;;;11.18;5.60;;;;;;;6.06;99.68;94336.72;5029668;28;20037;-80
2021/05/05 06:15:40;;;;;;;10.52;6.20;;;;;;;6.32;98.97;94359.97;5029945;28;20041;-82
2021/05/05 06:18:06;;;;;;;10.50;4.68;;;;;;;6.16;98.82;94354.22;5048073;28;20037;-81
2021/05/05 06:20:33;;;;;;;11.25;5.97;;;;;;;6.20;99.43;94360.47;5034538;28;20068;-82
2021/05/05 06:22:58;;;;;;;13.57;5.40;;;;;;;6.20;99.08;94384.22;5032474;28;20396;-80
2021/05/05 06:25:24;;;;;;;11.80;4.07;;;;;;;5.59;99.36;94396.66;5032180;28;20112;-78
2021/05/05 06:27:49;;;;;;;8.05;4.63;;;;;;;5.62;99.76;94396.06;5031765;28;20026;-79
2021/05/05 06:30:15;;;;;;;11.70;5.03;;;;;;;5.91;100.00;94401.13;5030149;28;20462;-78
2021/05/05 06:32:40;;;;;;;6.70;3.90;;;;;;;5.32;100.00;94422.94;5033087;28;20112;-77
2021/05/05 06:35:07;;;;;;;9.27;2.78;;;;;;;5.17;99.38;94419.50;5030630;28;20401;-77
2021/05/05 06:37:33;;;;;;;3.97;2.42;;;;;;;4.84;100.00;94417.84;5030543;28;20484;-76
2021/05/05 06:40:00;;;;;;;3.47;2.65;;;;;;;4.82;100.00;94430.53;5045808;28;20133;-75
2021/05/05 06:42:27;;;;;;;14.77;2.53;;;;;;;4.71;100.00;94432.53;5030085;28;20080;-76
2021/05/05 06:44:52;;;;;;;4.80;2.78;;;;;;;4.83;100.00;94422.34;5029357;28;20029;-74
2021/05/05 06:47:18;;;;;;;12.93;2.80;;;;;;;4.74;99.21;94413.50;5047037;28;20112;-73
2021/05/05 06:49:43;;;;;;;8.63;3.20;;;;;;;4.90;100.00;94421.97;5029705;28;20117;-72
2021/05/05 06:52:09;;;;;;;10.20;2.45;;;;;;;5.01;100.00;94428.66;5029388;28;20030;-71
2021/05/05 06:54:34;;;;;;;4.85;3.28;;;;;;;5.01;100.00;94422.63;5029375;28;20099;-72
2021/05/05 06:57:00;;;;;;;4.97;2.65;;;;;;;5.12;100.00;94413.53;5029110;28;20075;-71
2021/05/05 06:59:25;;;;;;;15.40;3.65;;;;;;;5.27;100.00;94399.28;5031391;28;20072;-71
2021/05/05 07:01:51;;;;;;;10.05;3.97;;;;;;;5.52;98.98;94398.09;5029183;28;20410;-71
2021/05/05 07:04:16;;;;;;;5.07;3.53;;;;;;;5.98;98.32;94411.28;5028876;28;20046;-71
2021/05/05 07:06:41;;;;;;;5.57;3.92;;;;;;;5.82;96.33;94399.44;5029138;28;20073;-71
2021/05/05 07:09:07;;;;;;;9.10;5.18;;;;;;;6.23;95.86;94423.25;5029200;28;20091;-72
2021/05/05 07:11:38;;;;;;;9.98;5.18;;;;;;;6.28;95.43;94412.56;5030902;28;20036;-73
2021/05/05 07:14:06;;;;;;;6.73;3.57;;;;;;;6.35;95.32;94417.50;5029240;28;20434;-73
2021/05/05 07:16:31;;;;;;;5.60;3.60;;;;;;;5.87;95.78;94405.38;5029192;28;20042;-73
2021/05/05 07:18:57;;;;;;;4.35;3.92;;;;;;;5.98;96.26;94382.25;5028223;28;20041;-73
2021/05/05 07:21:23;;;;;;;4.88;3.78;;;;;;;6.25;96.61;94411.31;5028703;28;20561;-73
2021/05/05 07:23:48;;;;;;;5.63;3.70;;;;;;;6.17;95.55;94390.88;5028843;28;20075;-71
2021/05/05 07:26:14;;;;;;;4.32;3.92;;;;;;;6.29;96.00;94405.44;5030908;28;20112;-68
2021/05/05 07:28:40;;;;;;;6.53;3.25;;;;;;;5.91;95.58;94387.94;5028832;28;20076;-71
2021/05/05 07:31:06;;;;;;;4.60;3.45;;;;;;;6.35;97.10;94402.41;5029042;28;20495;-63
2021/05/05 07:33:34;;;;;;;4.78;4.13;;;;;;;6.92;93.71;94415.25;5043977;28;20030;-64
2021/05/05 07:35:59;;;;;;;4.00;2.72;;;;;;;6.53;92.24;94421.09;5028823;28;20022;-71
2021/05/05 07:51:13;;;;;;;2.28;2.08;;;;;;;7.67;91.01;94424.34;5028541;28;20044;-71
2021/05/05 07:53:38;;;;;;;2.95;2.75;;;;;;;7.58;90.55;94410.28;5045378;28;20029;-69
2021/05/05 07:56:04;;;;;;;3.35;2.40;;;;;;;7.08;91.08;94419.09;5028407;28;20049;-69
2021/05/05 07:58:30;;;;;;;1.70;1.60;;;;;;;7.07;91.93;94427.34;5028318;28;20043;-69
2021/05/05 08:00:55;;;;;;;2.78;1.80;;;;;;;6.61;92.96;94430.97;5028862;28;20053;-72
2021/05/05 08:03:21;;;;;;;2.03;1.45;;;;;;;6.13;92.42;94429.50;5043720;28;20053;-69
2021/05/05 08:05:46;;;;;;;2.42;2.22;;;;;;;7.13;92.68;94434.88;5026873;28;20391;-65
2021/05/05 08:08:11;;;;;;;2.35;2.00;;;;;;;7.32;90.68;94420.69;5030087;28;20665;-68
2021/05/05 08:10:38;;;;;;;2.25;1.90;;;;;;;8.07;89.40;94422.53;5028036;28;20037;-64
2021/05/05 08:13:03;;;;;;;2.35;1.70;;;;;;;8.74;88.29;94416.22;5028142;28;20037;-67
2021/05/05 08:15:33;;;;;;;1.40;1.30;;;;;;;9.17;87.17;94424.22;5028392;28;20549;-64
2021/05/05 08:17:59;;;;;;;2.78;1.25;;;;;;;8.98;83.50;94416.56;5027784;28;20124;-64
2021/05/05 08:20:24;;;;;;;1.00;0.90;;;;;;;8.58;82.40;94467.00;5029753;28;20108;-65
2021/05/05 08:22:49;;;;;;;1.73;0.80;;;;;;;8.48;85.21;94455.91;5027935;28;20053;-66
2021/05/05 08:25:15;;;;;;;1.92;0.80;;;;;;;8.68;85.15;94459.88;5043298;28;20559;-68
2021/05/05 08:27:40;;;;;;;1.40;1.00;;;;;;;8.75;86.03;94447.75;5027989;28;20478;-64
2021/05/05 08:30:06;;;;;;;2.58;1.20;;;;;;;9.09;83.39;94462.91;5030883;28;20041;-69
2021/05/05 08:32:32;;;;;;;0.80;0.60;;;;;;;8.33;85.03;94484.34;5033695;28;20021;-66
2021/05/05 08:34:57;;;;;;;0.40;0.40;;;;;;;7.95;83.51;94475.28;5031802;28;20046;-66
2021/05/05 08:37:22;;;;;;;0.43;0.20;;;;;;;8.03;84.32;94461.28;5031740;28;20034;-65
2021/05/05 08:39:48;;;;;;;0.35;0.35;;;;;;;8.54;84.91;94471.38;5031811;28;20112;-66
2021/05/05 08:42:15;;;;;;;0.63;0.50;;;;;;;8.74;86.57;94443.50;5031558;28;20037;-67
2021/05/05 08:44:45;;;;;;;0.73;0.22;;;;;;;8.35;85.74;94454.91;5033505;28;20037;-63
2021/05/05 08:47:10;;;;;;;1.30;0.40;;;;;;;8.45;85.75;94467.16;5031943;28;20568;-63
2021/05/05 08:49:35;;;;;;;1.60;0.38;;;;;;;8.61;84.23;94455.03;5030238;28;20038;-65
2021/05/05 08:52:01;;;;;;;0.47;0.40;;;;;;;8.44;81.27;94450.44;5031296;28;20450;-64
2021/05/05 08:54:26;;;;;;;0.65;0.50;;;;;;;8.28;83.08;94467.81;5030171;28;20120;-64
2021/05/05 08:56:52;;;;;;;0.35;0.30;;;;;;;8.05;83.51;94454.63;5031193;28;20029;-64
2021/05/05 08:59:20;;;;;;;1.30;0.40;;;;;;;8.35;86.32;94478.75;5033422;28;20021;-64
2021/05/05 09:01:46;;;;;;;1.70;0.60;;;;;;;7.67;87.43;94488.63;5031180;28;20041;-64
2021/05/05 09:04:11;;;;;;;0.40;0.40;;;;;;;7.20;90.63;94485.47;5030869;28;20045;-64
2021/05/05 09:06:44;;;;;;;0.55;0.55;;;;;;;7.08;92.02;94487.09;5030075;28;20570;-64
2021/05/05 09:09:10;;;;;;;1.10;0.57;;;;;;;7.22;92.11;94469.31;5031198;28;20045;-63
2021/05/05 09:11:45;;;;;;;1.55;0.60;;;;;;;7.14;92.56;94470.03;5033036;28;20025;-64
2021/05/05 09:14:11;;;;;;;0.70;0.70;;;;;;;7.55;92.11;94483.13;5031514;28;20041;-64
2021/05/05 09:16:37;;;;;;;1.20;0.70;;;;;;;6.91;92.89;94477.91;5031015;28;20038;-64
2021/05/05 09:19:09;;;;;;;0.68;0.68;;;;;;;7.37;92.73;94490.16;5030921;28;20029;-64
2021/05/05 09:21:46;;;;;;;2.17;0.70;;;;;;;7.41;93.26;94499.03;5029578;28;20053;-64
2021/05/05 09:24:22;;;;;;;2.90;0.82;;;;;;;7.51;90.38;94480.28;5030887;28;20481;-64
2021/05/05 09:26:51;;;;;;;0.50;0.50;;;;;;;8.15;89.56;94471.34;5029647;28;20045;-65
2021/05/05 09:29:17;;;;;;;0.75;0.60;;;;;;;8.61;87.42;94481.53;5032897;28;20017;-64
2021/05/05 09:31:44;;;;;;;2.50;0.73;;;;;;;8.26;88.87;94486.66;5029353;28;20042;-64
2021/05/05 09:34:11;;;;;;;0.93;0.60;;;;;;;8.23;85.86;94455.47;5030706;28;20044;-65
2021/05/05 09:36:57;;;;;;;1.08;0.50;;;;;;;8.27;87.17;94471.53;5030738;28;20069;-64
2021/05/05 09:39:31;;;;;;;2.88;0.70;;;;;;;7.44;88.90;94484.44;5030671;28;20029;-66
2021/05/05 09:41:58;;;;;;;0.68;0.60;;;;;;;7.82;88.31;94496.22;5029396;28;20032;-65
2021/05/05 09:44:24;;;;;;;1.23;0.55;;;;;;;7.81;83.79;94497.31;5032348;28;20156;-66
2021/05/05 09:46:54;;;;;;;0.50;0.40;;;;;;;7.09;87.80;94507.94;5030400;28;20127;-67
2021/05/05 09:49:34;;;;;;;0.93;0.70;;;;;;;7.44;92.11;94506.38;5028723;28;20044;-69
2021/05/05 09:52:05;;;;;;;1.83;1.08;;;;;;;7.96;89.90;94503.31;5008642;28;20598;-68
2021/05/05 09:54:39;;;;;;;0.55;0.55;;;;;;;7.78;84.00;94471.44;5029399;28;20229;-68
2021/05/05 09:57:31;;;;;;;0.63;0.63;;;;;;;7.23;87.03;94442.56;5041392;28;20496;-68
2021/05/05 10:00:15;;;;;;;0.87;0.40;;;;;;;7.05;87.57;94525.47;5024157;28;20029;-68
2021/05/05 10:02:50;;;;;;;0.63;0.55;;;;;;;7.47;90.38;94505.00;5030569;28;20491;-66
2021/05/05 10:05:29;;;;;;;1.20;0.43;;;;;;;8.07;89.56;94513.34;5030517;28;20124;-67
2021/05/05 10:07:59;;;;;;;1.08;0.68;;;;;;;7.93;86.06;94506.56;5029711;28;20068;-66
2021/05/05 10:10:27;;;;;;;0.60;0.60;;;;;;;7.76;90.23;94513.31;5030067;28;20430;-66
2021/05/05 10:12:55;;;;;;;0.52;0.40;;;;;;;6.99;88.23;94506.28;5029751;28;20041;-66
2021/05/05 10:15:20;;;;;;;0.82;0.80;;;;;;;7.07;91.50;94535.78;5028716;28;20111;-66
2021/05/05 10:17:50;;;;;;;0.90;0.77;;;;;;;7.02;90.32;94544.59;5029955;28;20029;-71
2021/05/05 10:20:28;;;;;;;0.60;0.60;;;;;;;6.85;87.69;94531.94;5030681;28;20643;-66
2021/05/05 10:22:55;;;;;;;1.08;0.50;;;;;;;7.68;89.16;94502.69;5030167;28;20037;-68
2021/05/05 10:25:22;;;;;;;0.52;0.47;;;;;;;7.44;86.23;94521.47;5029637;28;20565;-70
2021/05/05 10:27:47;;;;;;;1.38;0.70;;;;;;;7.51;86.37;94503.31;5029638;28;20051;-66
2021/05/05 10:30:19;;;;;;;0.70;0.70;;;;;;;7.51;88.66;94529.78;5029811;28;20041;-66
2021/05/05 10:32:46;;;;;;;;;;;;;;;6.84;87.43;94554.19;5028386;28;20080;-64
2021/05/05 10:35:17;;;;;;;1.10;0.60;;;;;;;7.07;90.91;94539.19;5031560;28;19917;-66
2021/05/05 10:37:49;;;;;;;1.50;0.50;;;;;;;7.74;89.18;94534.03;5029129;28;20041;-66
2021/05/05 10:40:20;;;;;;;1.52;0.70;;;;;;;8.00;89.13;94547.44;5029530;28;20304;-66
2021/05/05 10:42:50;;;;;;;0.80;0.50;;;;;;;7.43;89.17;94555.09;5028960;28;20049;-67
2021/05/05 10:45:29;;;;;;;5.53;0.90;;;;;;;6.70;92.67;94601.75;5028239;28;20064;-66
2021/05/05 10:48:11;;;;;;;4.15;1.40;;;;;;;5.09;94.21;94614.41;5044381;28;20395;-65
2021/05/05 10:50:50;;;;;;;5.47;1.83;;;;;;;4.39;95.90;94623.56;5046450;28;20025;-66
2021/05/05 10:53:17;;;;;;;5.97;2.75;;;;;;;4.11;98.49;94627.75;5029213;28;20037;-65
2021/05/05 10:55:47;;;;;;;15.52;6.85;;;;;;;4.51;99.32;94625.06;5029218;28;20487;-66
2021/05/05 10:58:37;;;;;;;16.67;7.70;;;;;;;4.55;99.93;94631.31;5028039;28;20034;-65
2021/05/05 11:01:05;;;;;;;21.00;7.03;;;;;;;4.51;99.25;94649.53;5026055;28;20044;-66
2021/05/05 11:03:44;;;;;;;6.35;4.30;;;;;;;4.35;98.64;94635.72;5027699;28;20040;-66
2021/05/05 11:06:35;;;;;;;16.67;6.38;;;;;;;4.76;98.33;94635.34;5029394;28;20496;-65
2021/05/05 11:09:12;;;;;;;17.15;6.43;;;;;;;4.94;98.56;94631.19;5044196;28;20116;-65
2021/05/05 11:11:41;;;;;;;12.18;4.28;;;;;;;4.81;98.02;94659.00;5030969;28;20100;-65
2021/05/05 11:14:08;;;;;;;4.85;2.85;;;;;;;4.57;98.53;94632.63;5029461;28;20046;-66
2021/05/05 11:16:51;;;;;;;12.00;6.25;;;;;;;5.33;98.04;94646.84;5027785;28;20040;-65
2021/05/05 11:19:35;;;;;;;10.15;6.30;;;;;;;5.31;96.68;94633.13;5044084;28;20038;-65
2021/05/05 11:22:04;;;;;;;6.65;4.72;;;;;;;5.36;94.03;94630.41;5028434;28;20042;-65
2021/05/05 11:24:32;;;;;;;11.05;4.45;;;;;;;5.94;92.35;94629.44;5028757;28;20122;-65
2021/05/05 11:26:58;;;;;;;5.25;2.75;;;;;;;6.16;89.18;94626.97;5028684;28;20059;-66
2021/05/05 11:29:31;;;;;;;8.50;4.78;;;;;;;6.28;87.83;94649.50;5029115;28;20025;-66
2021/05/05 11:32:03;;;;;;;7.95;4.47;;;;;;;6.30;91.36;94647.38;5028496;28;20402;-65
2021/05/05 11:34:28;;;;;;;8.02;4.43;;;;;;;6.57;90.65;94631.59;5027328;28;20038;-65
2021/05/05 11:37:00;;;;;;;11.65;4.72;;;;;;;6.44;88.93;94633.09;5028346;28;20140;-65
2021/05/05 11:39:32;;;;;;;12.98;4.82;;;;;;;7.15;90.06;94633.69;5028390;28;20679;-65
2021/05/05 11:42:00;;;;;;;9.75;5.00;;;;;;;6.98;88.80;94622.94;5027017;28;20021;-64
2021/05/05 11:44:48;;;;;;;10.43;4.75;;;;;;;7.52;85.47;94619.47;5030285;28;20033;-65
2021/05/05 11:47:35;;;;;;;7.90;4.70;;;;;;;8.63;84.87;94625.16;5028642;28;20080;-65
2021/05/05 11:50:07;;;;;;;3.72;3.15;;;;;;;7.58;82.30;94614.84;5028364;28;20053;-65